Time;durP1;ratioP1;P1;durP2;ratioP2;P2;SDS_P1;SDS_P2;PMS_P1;PMS_P2;Temp;Humidity;BMP_temperature;BMP_pressure;BME280_temperature;BME280_humidity;BME280_pressure;Samples;Min_cycle;Max_cycle;Signal;HPM_P1;HPM_P2
2024/01/12 00:01:04;;;;;;;23.00;16.10;;;2.20;1.00;;;;;;5094758;28;20260;-76
2024/01/12 00:03:31;;;;;;;23.85;17.67;;;2.10;1.00;;;;;;5090278;28;20800;-76
2024/01/12 00:05:58;;;;;;;23.38;15.80;;;2.10;1.00;;;;;;5092357;28;20761;-76
2024/01/12 00:08:28;;;;;;;20.38;15.50;;;2.10;1.00;;;;;;5093578;28;20236;-76
2024/01/12 00:10:56;;;;;;;20.23;14.88;;;2.10;1.00;;;;;;5093156;28;21173;-76
2024/01/12 00:13:23;;;;;;;20.10;14.95;;;2.10;1.00;;;;;;5088684;28;20236;-77
2024/01/12 00:15:49;;;;;;;23.50;15.82;;;2.20;1.00;;;;;;5093046;28;20299;-75
2024/01/12 00:18:16;;;;;;;19.25;14.55;;;2.10;1.00;;;;;;5095180;28;20212;-78
2024/01/12 00:20:44;;;;;;;20.02;13.50;;;2.10;1.00;;;;;;5091900;28;20251;-76
2024/01/12 00:23:11;;;;;;;19.13;13.80;;;2.10;1.00;;;;;;5103741;28;20231;-76
2024/01/12 00:25:39;;;;;;;20.73;13.95;;;2.10;1.00;;;;;;5111616;27;20232;-77
2024/01/12 00:28:07;;;;;;;22.23;15.40;;;2.10;1.00;;;;;;5109475;28;20293;-75
2024/01/12 00:30:34;;;;;;;20.10;15.43;;;2.20;1.00;;;;;;5105286;28;20698;-76
2024/01/12 00:33:02;;;;;;;21.20;14.35;;;2.20;1.00;;;;;;5111301;28;20248;-77
2024/01/12 00:35:29;;;;;;;24.67;15.60;;;2.20;1.00;;;;;;5111470;28;20239;-75
2024/01/12 00:37:56;;;;;;;19.25;14.65;;;2.10;1.00;;;;;;5093949;28;20235;-76
2024/01/12 00:40:24;;;;;;;22.70;15.27;;;2.10;1.00;;;;;;5112698;28;20236;-75
2024/01/12 00:42:52;;;;;;;22.83;15.95;;;2.10;1.00;;;;;;5111589;28;21113;-76
2024/01/12 00:45:19;;;;;;;20.80;14.35;;;2.10;1.00;;;;;;5110468;28;20635;-76
2024/01/12 00:47:46;;;;;;;21.55;14.88;;;2.10;1.00;;;;;;5109662;28;20242;-76
2024/01/12 00:50:13;;;;;;;20.75;14.90;;;2.10;1.00;;;;;;5108481;28;20270;-76
2024/01/12 00:52:40;;;;;;;19.38;14.43;;;2.10;1.00;;;;;;5111996;28;20239;-76
2024/01/12 00:55:07;;;;;;;18.27;14.27;;;2.10;1.00;;;;;;5114780;28;20240;-76
2024/01/12 00:57:34;;;;;;;17.60;15.00;;;2.10;1.00;;;;;;5111081;28;20234;-76
2024/01/12 01:00:04;;;;;;;26.33;14.23;;;2.10;1.00;;;;;;5112152;28;20318;-75
2024/01/12 01:02:31;;;;;;;21.40;14.98;;;2.10;1.00;;;;;;5112609;27;20995;-76
2024/01/12 01:04:59;;;;;;;23.48;12.73;;;2.10;1.00;;;;;;5109522;28;20242;-76
2024/01/12 01:07:28;;;;;;;17.98;14.20;;;2.00;1.00;;;;;;5111769;28;20249;-75
2024/01/12 01:09:55;;;;;;;21.30;14.13;;;2.00;1.00;;;;;;5106194;28;20318;-76
2024/01/12 01:12:22;;;;;;;19.10;12.85;;;2.00;1.00;;;;;;5110886;28;20240;-76
2024/01/12 01:14:49;;;;;;;18.42;13.68;;;2.00;1.00;;;;;;5110176;28;20231;-77
2024/01/12 01:17:17;;;;;;;20.25;14.38;;;2.10;1.00;;;;;;5109766;27;20239;-77
2024/01/12 01:19:44;;;;;;;23.60;15.50;;;2.00;1.00;;;;;;5098817;28;20255;-74
2024/01/12 01:22:11;;;;;;;16.00;13.38;;;2.00;1.00;;;;;;5107080;28;20239;-78
2024/01/12 01:24:38;;;;;;;21.05;14.20;;;2.00;1.00;;;;;;5111149;28;20282;-76
2024/01/12 01:27:07;;;;;;;22.73;15.70;;;2.00;1.00;;;;;;5109299;28;20322;-76
2024/01/12 01:29:34;;;;;;;22.90;15.05;;;1.90;1.00;;;;;;5110897;28;20795;-76
2024/01/12 01:32:01;;;;;;;22.65;13.82;;;1.90;1.00;;;;;;5113229;28;20243;-76
2024/01/12 01:34:29;;;;;;;18.70;13.15;;;1.80;1.00;;;;;;5113895;28;20353;-75
2024/01/12 01:37:01;;;;;;;25.52;15.02;;;1.80;1.00;;;;;;5105711;28;20330;-76
2024/01/12 01:39:29;;;;;;;20.92;14.32;;;1.80;1.00;;;;;;5109223;28;20243;-75
2024/01/12 01:41:56;;;;;;;20.45;13.98;;;1.80;1.00;;;;;;5109195;28;20270;-74
2024/01/12 01:44:25;;;;;;;21.42;13.57;;;1.90;1.00;;;;;;5110580;28;20274;-76
2024/01/12 01:46:53;;;;;;;24.85;15.13;;;1.90;1.00;;;;;;5114596;27;20318;-72
2024/01/12 01:49:22;;;;;;;20.92;14.60;;;2.00;1.00;;;;;;5088957;28;20384;-73
2024/01/12 01:51:50;;;;;;;25.77;15.27;;;2.00;1.00;;;;;;5105899;28;21140;-75
2024/01/12 01:54:19;;;;;;;21.05;13.63;;;2.00;1.00;;;;;;5107504;28;20326;-74
2024/01/12 01:56:47;;;;;;;23.10;13.65;;;2.10;1.00;;;;;;5110194;28;20232;-72
2024/01/12 01:59:14;;;;;;;23.25;13.38;;;2.10;1.00;;;;;;5105837;27;20240;-74
2024/01/12 02:01:42;;;;;;;21.98;14.95;;;2.10;1.00;;;;;;5096984;27;20244;-73
2024/01/12 02:04:12;;;;;;;26.48;14.70;;;2.20;1.00;;;;;;5110162;27;20242;-72
2024/01/12 02:06:40;;;;;;;25.85;16.27;;;2.20;1.00;;;;;;5108005;28;20239;-73
2024/01/12 02:09:09;;;;;;;20.65;13.40;;;2.30;1.00;;;;;;5103015;28;20259;-74
2024/01/12 02:11:36;;;;;;;24.67;14.55;;;2.20;1.00;;;;;;5083668;28;20231;-73
2024/01/12 02:14:06;;;;;;;24.80;13.50;;;2.30;1.00;;;;;;5110512;27;20239;-74
2024/01/12 02:16:34;;;;;;;22.75;12.98;;;2.30;1.00;;;;;;5108279;28;20307;-74
2024/01/12 02:19:01;;;;;;;23.83;14.70;;;2.20;1.00;;;;;;5108067;28;21002;-76
2024/01/12 02:21:31;;;;;;;20.33;13.82;;;2.20;1.00;;;;;;5105218;28;20999;-75
2024/01/12 02:23:58;;;;;;;25.08;15.05;;;2.10;1.00;;;;;;5085966;28;20313;-73
2024/01/12 02:26:26;;;;;;;19.08;13.52;;;2.00;1.00;;;;;;5088901;28;20719;-75
2024/01/12 02:28:53;;;;;;;21.25;13.80;;;2.00;1.00;;;;;;5090515;28;20236;-76
2024/01/12 02:31:21;;;;;;;19.67;13.40;;;2.00;1.00;;;;;;5091541;28;20738;-77
2024/01/12 02:33:49;;;;;;;22.13;15.32;;;2.00;1.00;;;;;;5092753;28;20232;-74
2024/01/12 02:36:19;;;;;;;18.50;12.88;;;2.00;1.00;;;;;;5089230;28;20220;-73
2024/01/12 02:38:50;;;;;;;20.23;14.30;;;2.00;1.00;;;;;;5092892;28;21333;-76
2024/01/12 02:41:17;;;;;;;22.23;14.75;;;2.00;1.00;;;;;;5090401;28;20236;-75
2024/01/12 02:43:44;;;;;;;22.55;14.85;;;2.00;1.00;;;;;;5090534;28;20232;-74
2024/01/12 02:46:12;;;;;;;23.48;14.50;;;2.10;1.00;;;;;;5091096;28;20240;-74
2024/01/12 02:48:39;;;;;;;19.65;12.95;;;2.10;1.00;;;;;;5092008;28;20294;-76
2024/01/12 02:51:06;;;;;;;18.58;12.85;;;2.00;1.00;;;;;;5092681;28;20334;-75
2024/01/12 02:53:34;;;;;;;22.75;13.70;;;2.00;1.00;;;;;;5092784;28;20250;-75
2024/01/12 02:56:03;;;;;;;18.38;12.73;;;2.00;1.00;;;;;;5095981;28;20264;-75
2024/01/12 02:58:30;;;;;;;18.00;12.25;;;1.90;1.00;;;;;;5092392;28;20246;-74
2024/01/12 03:00:57;;;;;;;16.83;12.20;;;1.90;1.00;;;;;;5088882;28;20334;-75
2024/01/12 03:03:24;;;;;;;21.23;13.00;;;1.90;1.00;;;;;;5086133;28;20251;-75
2024/01/12 03:05:51;;;;;;;19.63;12.95;;;1.90;1.00;;;;;;5090679;28;20274;-74
2024/01/12 03:08:18;;;;;;;20.65;14.55;;;1.90;1.00;;;;;;5095883;28;20323;-75
2024/01/12 03:10:45;;;;;;;22.33;14.90;;;1.90;1.00;;;;;;5090627;28;20263;-75
2024/01/12 03:13:13;;;;;;;20.88;12.82;;;1.90;1.00;;;;;;5096269;28;21189;-75
2024/01/12 03:15:40;;;;;;;23.92;15.48;;;2.00;1.00;;;;;;5090969;28;20266;-74
2024/01/12 03:18:07;;;;;;;20.08;13.90;;;2.10;1.00;;;;;;5088389;28;20236;-75
2024/01/12 03:20:35;;;;;;;19.95;13.15;;;2.10;1.00;;;;;;5087458;28;20282;-74
2024/01/12 03:23:02;;;;;;;18.33;12.60;;;2.20;1.00;;;;;;5106150;28;20262;-74
2024/01/12 03:25:29;;;;;;;19.40;13.05;;;2.20;1.00;;;;;;5110177;28;20250;-75
2024/01/12 03:27:56;;;;;;;19.17;13.20;;;2.20;1.00;;;;;;5111658;28;20235;-74
2024/01/12 03:30:25;;;;;;;19.67;12.68;;;2.20;1.00;;;;;;5109947;28;20246;-77
2024/01/12 03:32:52;;;;;;;17.70;12.25;;;2.30;1.00;;;;;;5109219;28;20700;-78
2024/01/12 03:35:19;;;;;;;18.08;11.95;;;2.20;1.00;;;;;;5102012;28;20705;-74
2024/01/12 03:37:48;;;;;;;17.38;11.65;;;2.20;1.00;;;;;;5110882;28;20255;-72
2024/01/12 03:40:15;;;;;;;18.95;12.88;;;2.10;1.00;;;;;;5110833;28;20240;-72
2024/01/12 03:42:42;;;;;;;17.02;11.88;;;2.10;1.00;;;;;;5112121;28;20270;-72
2024/01/12 03:45:10;;;;;;;18.80;12.15;;;2.10;1.00;;;;;;5110465;28;20763;-74
2024/01/12 03:47:38;;;;;;;20.63;12.55;;;2.10;1.00;;;;;;5106696;28;20235;-73
2024/01/12 03:50:05;;;;;;;23.58;15.30;;;2.10;1.00;;;;;;5109600;28;20304;-73
2024/01/12 03:52:33;;;;;;;19.40;12.30;;;2.00;1.00;;;;;;5112820;28;20275;-72
2024/01/12 03:55:00;;;;;;;20.23;12.57;;;2.10;1.00;;;;;;5105488;28;20323;-73
2024/01/12 03:57:27;;;;;;;20.23;12.77;;;2.00;1.00;;;;;;5110905;28;20771;-75
2024/01/12 03:59:55;;;;;;;20.65;13.75;;;2.00;1.00;;;;;;5112752;28;21025;-74
2024/01/12 04:02:24;;;;;;;20.75;14.45;;;2.00;1.00;;;;;;5108591;27;21219;-72
2024/01/12 04:04:53;;;;;;;19.23;12.10;;;2.00;1.00;;;;;;5109000;28;20236;-72
2024/01/12 04:07:20;;;;;;;19.27;12.32;;;2.10;1.00;;;;;;5107754;28;20231;-76
2024/01/12 04:09:47;;;;;;;20.17;13.25;;;2.10;1.00;;;;;;5106141;28;20338;-73
2024/01/12 04:12:15;;;;;;;17.90;10.75;;;2.10;1.00;;;;;;5110648;28;20266;-74
2024/01/12 04:14:45;;;;;;;16.90;11.23;;;2.10;1.00;;;;;;5111185;28;20239;-73
2024/01/12 04:17:12;;;;;;;17.33;12.65;;;2.10;1.00;;;;;;5111317;28;20326;-75
2024/01/12 04:19:39;;;;;;;18.67;11.85;;;2.10;1.00;;;;;;5108995;28;20696;-73
2024/01/12 04:22:07;;;;;;;18.92;12.38;;;2.10;1.00;;;;;;5112083;28;20236;-73
2024/01/12 04:24:34;;;;;;;15.90;11.45;;;2.20;1.00;;;;;;5110892;28;20323;-72
2024/01/12 04:27:01;;;;;;;17.80;11.10;;;2.10;1.00;;;;;;5109075;28;20301;-73
2024/01/12 04:29:29;;;;;;;19.20;13.63;;;2.00;1.00;;;;;;5110925;28;20243;-74
2024/01/12 04:31:56;;;;;;;19.08;13.15;;;2.00;1.00;;;;;;5107626;27;20231;-72
2024/01/12 04:34:22;;;;;;;20.00;12.13;;;2.00;1.00;;;;;;5109150;28;20240;-76
2024/01/12 04:36:49;;;;;;;15.10;10.70;;;2.00;1.00;;;;;;5110425;28;20364;-73
2024/01/12 04:39:20;;;;;;;18.95;12.20;;;2.00;1.00;;;;;;5111888;28;20317;-74
2024/01/12 04:41:47;;;;;;;46.95;30.52;;;2.00;1.00;;;;;;5108870;28;20250;-76
2024/01/12 04:44:14;;;;;;;16.33;12.10;;;2.00;1.00;;;;;;5112263;28;20235;-74
2024/01/12 04:46:43;;;;;;;20.50;13.30;;;1.90;1.00;;;;;;5109610;28;20235;-74
2024/01/12 04:49:10;;;;;;;16.08;10.60;;;2.00;1.00;;;;;;5110542;27;20235;-76
2024/01/12 04:51:37;;;;;;;18.33;12.77;;;2.00;1.00;;;;;;5112802;28;21071;-76
2024/01/12 04:54:06;;;;;;;15.60;10.93;;;1.90;1.00;;;;;;5087592;28;20231;-76
2024/01/12 04:56:35;;;;;;;19.75;12.02;;;1.90;1.00;;;;;;5102880;28;20236;-76
2024/01/12 04:59:02;;;;;;;18.90;12.05;;;1.90;1.00;;;;;;5113238;27;20958;-76
2024/01/12 05:01:31;;;;;;;15.55;11.82;;;1.90;1.00;;;;;;5110107;28;20283;-76
2024/01/12 05:04:00;;;;;;;17.30;11.98;;;1.90;1.00;;;;;;5103836;27;20224;-77
2024/01/12 05:06:29;;;;;;;18.83;12.40;;;2.00;1.00;;;;;;5108489;27;20235;-77
2024/01/12 05:08:56;;;;;;;16.20;12.98;;;2.10;1.00;;;;;;5112089;27;20296;-75
2024/01/12 05:11:26;;;;;;;15.82;12.40;;;2.10;1.00;;;;;;5093059;27;20258;-75
2024/01/12 05:13:54;;;;;;;17.50;13.10;;;2.00;1.00;;;;;;5108573;27;20243;-76
2024/01/12 05:16:20;;;;;;;15.63;11.57;;;2.00;1.00;;;;;;5109210;27;20338;-76
2024/01/12 05:18:47;;;;;;;16.73;11.00;;;2.10;1.00;;;;;;5104932;27;20247;-75
2024/01/12 05:21:16;;;;;;;16.88;11.95;;;2.10;1.00;;;;;;5103667;27;20278;-77
2024/01/12 05:23:44;;;;;;;16.02;10.80;;;2.10;1.00;;;;;;5107357;27;20219;-75
2024/01/12 05:26:15;;;;;;;16.02;11.85;;;2.10;1.00;;;;;;5108977;27;20234;-78
2024/01/12 05:28:42;;;;;;;16.30;12.15;;;2.10;1.00;;;;;;5108999;28;20265;-77
2024/01/12 05:31:16;;;;;;;13.98;11.00;;;2.10;1.00;;;;;;5100157;27;20231;-76
2024/01/12 05:33:43;;;;;;;13.73;10.98;;;2.10;1.00;;;;;;5111090;27;20246;-80
2024/01/12 05:36:13;;;;;;;16.33;12.13;;;2.20;1.00;;;;;;5111309;27;20313;-77
2024/01/12 05:38:40;;;;;;;15.40;10.95;;;2.20;1.00;;;;;;5101430;27;22003;-75
2024/01/12 05:41:07;;;;;;;16.42;11.95;;;2.20;1.00;;;;;;5102415;27;20334;-76
2024/01/12 05:43:34;;;;;;;17.80;13.10;;;2.20;1.00;;;;;;5109331;28;20771;-74
2024/01/12 05:46:01;;;;;;;15.60;10.70;;;2.30;1.00;;;;;;5103873;28;20308;-75
2024/01/12 05:48:30;;;;;;;15.43;10.30;;;2.20;1.00;;;;;;5103729;28;21070;-77
2024/01/12 05:50:58;;;;;;;15.88;10.90;;;2.30;1.00;;;;;;5106011;27;20231;-81
2024/01/12 05:53:26;;;;;;;16.73;12.05;;;2.20;1.00;;;;;;5103027;27;20319;-82
2024/01/12 05:55:55;;;;;;;17.95;11.80;;;2.20;1.00;;;;;;5114089;27;20319;-78
2024/01/12 05:58:22;;;;;;;18.23;12.68;;;2.00;1.00;;;;;;5111308;27;20297;-80
2024/01/12 06:00:49;;;;;;;15.70;10.55;;;2.00;1.00;;;;;;5111766;27;21135;-81
2024/01/12 06:03:16;;;;;;;17.45;11.35;;;2.00;1.00;;;;;;5111364;27;20242;-81
2024/01/12 06:05:51;;;;;;;16.75;12.20;;;2.00;1.00;;;;;;5108459;27;20239;-77
2024/01/12 06:08:20;;;;;;;16.42;11.70;;;2.00;1.00;;;;;;5107846;27;20232;-78
2024/01/12 06:10:48;;;;;;;18.00;11.73;;;2.10;1.00;;;;;;5110799;27;20231;-80
2024/01/12 06:13:15;;;;;;;18.27;11.65;;;2.10;1.00;;;;;;5116508;27;20224;-80
2024/01/12 06:15:43;;;;;;;17.13;10.70;;;2.10;1.00;;;;;;5116179;27;20231;-82
2024/01/12 06:18:11;;;;;;;15.55;10.75;;;2.20;1.00;;;;;;5094844;28;20974;-79
2024/01/12 06:20:38;;;;;;;14.40;9.55;;;2.20;1.00;;;;;;5105811;27;20266;-76
2024/01/12 06:23:07;;;;;;;15.45;11.35;;;2.20;1.00;;;;;;5116802;27;20927;-81
2024/01/12 06:25:36;;;;;;;19.25;13.07;;;2.20;1.00;;;;;;5111617;27;20291;-77
2024/01/12 06:28:05;;;;;;;18.33;10.90;;;2.20;1.00;;;;;;5114239;27;20320;-77
2024/01/12 06:30:34;;;;;;;15.02;10.50;;;2.20;1.00;;;;;;5111104;27;20477;-76
2024/01/12 06:33:02;;;;;;;18.80;13.48;;;2.20;1.00;;;;;;5110660;28;20227;-77
2024/01/12 06:35:29;;;;;;;18.55;13.48;;;2.20;1.00;;;;;;5113386;27;20235;-78
2024/01/12 06:38:02;;;;;;;19.17;12.32;;;2.30;1.00;;;;;;5099198;27;20235;-79
2024/01/12 06:40:34;;;;;;;45.20;28.55;;;2.30;1.00;;;;;;5105067;28;20223;-81
2024/01/12 06:43:04;;;;;;;21.27;14.65;;;2.40;1.00;;;;;;5117298;27;20282;-80
2024/01/12 06:45:31;;;;;;;16.77;11.10;;;2.30;1.00;;;;;;5118222;27;20326;-80
2024/01/12 06:48:01;;;;;;;17.77;12.15;;;2.30;1.00;;;;;;5119158;27;20262;-81
2024/01/12 06:50:35;;;;;;;17.98;12.95;;;2.10;1.00;;;;;;5114180;28;20345;-80
2024/01/12 06:53:08;;;;;;;23.33;13.75;;;2.00;1.00;;;;;;5114468;27;20280;-81
2024/01/12 06:55:37;;;;;;;20.20;13.30;;;2.00;1.00;;;;;;5112142;27;20235;-79
2024/01/12 06:58:05;;;;;;;23.00;14.70;;;2.00;1.00;;;;;;5101644;27;20282;-81
2024/01/12 07:00:32;;;;;;;20.52;12.50;;;1.90;1.00;;;;;;5097229;28;21242;-81
2024/01/12 07:03:01;;;;;;;20.00;13.30;;;1.90;1.00;;;;;;5114855;27;20925;-80
2024/01/12 07:05:37;;;;;;;17.83;11.80;;;1.80;1.00;;;;;;5116554;27;20239;-79
2024/01/12 07:08:06;;;;;;;20.38;12.98;;;1.70;1.00;;;;;;5114159;27;20243;-77
2024/01/12 07:10:35;;;;;;;17.98;12.65;;;1.80;1.00;;;;;;5109157;28;20344;-77
2024/01/12 07:13:03;;;;;;;21.02;12.95;;;1.80;1.00;;;;;;5111917;27;20235;-79
2024/01/12 07:15:31;;;;;;;25.02;15.00;;;1.80;1.00;;;;;;5111131;27;20235;-76
2024/01/12 07:17:58;;;;;;;17.30;12.25;;;1.80;1.00;;;;;;5110867;27;20980;-77
2024/01/12 07:20:25;;;;;;;18.40;12.65;;;1.90;1.00;;;;;;5111192;28;20246;-74
2024/01/12 07:22:52;;;;;;;17.08;11.70;;;1.80;1.00;;;;;;5107966;27;20231;-74
2024/01/12 07:25:21;;;;;;;17.80;10.82;;;1.80;1.00;;;;;;5109586;27;20295;-76
2024/01/12 07:27:57;;;;;;;17.77;11.32;;;1.70;1.00;;;;;;5111654;27;20235;-79
2024/01/12 07:30:23;;;;;;;15.88;11.10;;;1.70;1.00;;;;;;5088098;28;20342;-80
2024/01/12 07:32:53;;;;;;;17.45;11.70;;;1.60;1.00;;;;;;5108590;27;20244;-78
2024/01/12 07:35:21;;;;;;;17.13;10.60;;;1.60;1.00;;;;;;5113578;28;20353;-74
2024/01/12 07:37:48;;;;;;;16.95;11.48;;;1.50;1.00;;;;;;5112247;27;20651;-79
2024/01/12 07:40:15;;;;;;;14.95;10.18;;;1.50;1.00;;;;;;5112173;27;20312;-78
2024/01/12 07:42:45;;;;;;;24.63;16.20;;;1.50;1.00;;;;;;5111746;28;20266;-77
2024/01/12 07:45:15;;;;;;;14.30;10.43;;;1.60;1.00;;;;;;5109661;28;20278;-74
2024/01/12 07:47:42;;;;;;;15.70;8.95;;;1.70;1.00;;;;;;5106570;27;20273;-76
2024/01/12 07:50:12;;;;;;;17.13;9.57;;;1.60;1.00;;;;;;5111553;27;20702;-75
2024/01/12 07:52:40;;;;;;;13.30;9.80;;;1.70;1.00;;;;;;5112558;28;20267;-78
2024/01/12 07:55:07;;;;;;;21.27;13.30;;;1.70;1.00;;;;;;5112186;28;20792;-77
2024/01/12 07:57:36;;;;;;;18.20;13.68;;;1.70;1.00;;;;;;5111074;27;20239;-77
2024/01/12 08:00:07;;;;;;;14.10;11.32;;;1.70;1.00;;;;;;5112295;27;20354;-77
2024/01/12 08:02:44;;;;;;;16.95;12.55;;;1.70;1.00;;;;;;5114676;27;20231;-75
2024/01/12 08:05:11;;;;;;;17.33;12.73;;;1.70;1.00;;;;;;5109306;27;20249;-74
2024/01/12 08:07:40;;;;;;;15.02;11.15;;;1.70;1.00;;;;;;5112714;27;20228;-72
2024/01/12 08:10:11;;;;;;;14.57;11.02;;;1.70;1.00;;;;;;5112194;27;21130;-73
2024/01/12 08:12:38;;;;;;;19.48;12.55;;;1.70;1.00;;;;;;5110887;27;20317;-74
2024/01/12 08:15:08;;;;;;;19.13;13.63;;;1.70;1.00;;;;;;5111447;27;22134;-74
2024/01/12 08:17:42;;;;;;;18.27;15.45;;;1.70;1.00;;;;;;5096811;28;20286;-76
2024/01/12 08:20:14;;;;;;;18.75;13.98;;;1.70;1.00;;;;;;5092289;28;20816;-77
2024/01/12 08:22:56;;;;;;;22.45;14.32;;;1.80;1.00;;;;;;5113441;27;20326;-74
2024/01/12 08:25:24;;;;;;;20.40;13.95;;;1.70;1.00;;;;;;5104378;28;20318;-73
2024/01/12 08:27:51;;;;;;;19.63;14.18;;;1.80;1.00;;;;;;5114832;27;20246;-73
2024/01/12 08:30:21;;;;;;;17.80;12.30;;;1.80;1.00;;;;;;5109761;27;20263;-79
2024/01/12 08:32:50;;;;;;;16.38;10.30;;;1.70;1.00;;;;;;5110829;27;20329;-74
2024/01/12 08:35:18;;;;;;;18.10;11.20;;;1.70;1.00;;;;;;5111590;27;20235;-74
2024/01/12 08:37:46;;;;;;;14.52;11.45;;;1.70;1.00;;;;;;5109504;28;20243;-76
2024/01/12 08:40:13;;;;;;;16.52;12.00;;;1.60;1.00;;;;;;5111132;27;20993;-81
2024/01/12 08:42:42;;;;;;;16.05;11.07;;;1.70;1.00;;;;;;5106680;27;20323;-74
2024/01/12 08:45:09;;;;;;;14.35;10.63;;;1.60;1.00;;;;;;5111512;28;20251;-73
2024/01/12 08:47:38;;;;;;;15.20;10.80;;;1.60;1.00;;;;;;5110725;27;20259;-75
2024/01/12 08:50:07;;;;;;;21.80;16.45;;;1.60;1.00;;;;;;5108256;28;20263;-75
2024/01/12 08:52:34;;;;;;;33.17;21.75;;;1.70;1.00;;;;;;5106553;27;20239;-78
2024/01/12 08:55:03;;;;;;;14.25;10.57;;;1.70;1.00;;;;;;5108343;27;20242;-76
2024/01/12 08:57:30;;;;;;;18.55;11.20;;;1.80;1.00;;;;;;5111978;27;20235;-75
2024/01/12 08:59:57;;;;;;;14.02;9.70;;;1.80;1.00;;;;;;5109674;27;20325;-75
2024/01/12 09:02:25;;;;;;;15.32;11.20;;;1.80;1.00;;;;;;5109117;27;20322;-74
2024/01/12 09:04:51;;;;;;;14.20;10.05;;;1.80;1.00;;;;;;5106999;27;20781;-73
2024/01/12 09:07:22;;;;;;;13.25;9.02;;;1.80;1.00;;;;;;5106222;27;20293;-77
2024/01/12 09:09:49;;;;;;;15.18;10.13;;;1.70;1.00;;;;;;5107758;27;20329;-74
2024/01/12 09:12:16;;;;;;;12.68;8.77;;;1.70;1.00;;;;;;5109375;27;20266;-72
2024/01/12 09:14:43;;;;;;;13.52;9.88;;;1.60;1.00;;;;;;5103777;27;20277;-74
2024/01/12 09:17:10;;;;;;;14.02;10.00;;;1.70;1.00;;;;;;5109009;27;20239;-75
2024/01/12 09:19:37;;;;;;;12.43;9.93;;;1.70;1.00;;;;;;5110270;27;20843;-72
2024/01/12 09:22:04;;;;;;;14.45;9.57;;;1.70;1.00;;;;;;5097601;27;20235;-74
2024/01/12 09:24:34;;;;;;;10.57;8.30;;;1.70;1.00;;;;;;5104452;27;20243;-75
2024/01/12 09:27:02;;;;;;;11.80;8.82;;;1.80;1.00;;;;;;5109232;27;20231;-74
2024/01/12 09:29:29;;;;;;;12.18;8.93;;;1.90;1.00;;;;;;5106211;28;21377;-76
2024/01/12 09:31:57;;;;;;;10.23;8.05;;;1.90;1.00;;;;;;5111792;28;20227;-76
2024/01/12 09:34:24;;;;;;;11.57;8.75;;;1.80;1.00;;;;;;5108208;27;20399;-76
2024/01/12 09:36:56;;;;;;;12.73;9.25;;;1.80;1.00;;;;;;5107012;27;20250;-75
2024/01/12 09:39:24;;;;;;;13.85;9.48;;;1.80;1.00;;;;;;5092429;28;20277;-75
2024/01/12 09:41:59;;;;;;;12.98;10.50;;;1.80;1.00;;;;;;5093887;27;20258;-77
2024/01/12 09:44:28;;;;;;;12.27;8.13;;;1.90;1.00;;;;;;5106799;27;20321;-76
2024/01/12 09:46:57;;;;;;;12.18;8.20;;;1.90;1.00;;;;;;5074109;28;20805;-76
2024/01/12 09:49:28;;;;;;;10.85;8.65;;;1.90;1.00;;;;;;5109574;27;20238;-75
2024/01/12 09:51:55;;;;;;;9.60;7.45;;;1.90;1.00;;;;;;5108240;28;20270;-80
2024/01/12 09:54:23;;;;;;;10.73;7.35;;;2.00;1.00;;;;;;5112702;28;20235;-78
2024/01/12 09:56:53;;;;;;;10.80;7.88;;;1.90;1.00;;;;;;5109005;27;20263;-77
2024/01/12 09:59:23;;;;;;;15.10;12.02;;;1.90;1.00;;;;;;5111477;28;20313;-76
2024/01/12 10:01:51;;;;;;;8.77;7.53;;;1.90;1.00;;;;;;5110932;28;20350;-79
2024/01/12 10:04:18;;;;;;;9.75;7.75;;;1.90;1.00;;;;;;5108249;27;20231;-76
2024/01/12 10:06:45;;;;;;;10.55;7.38;;;2.00;1.00;;;;;;5106971;28;20314;-79
2024/01/12 10:09:13;;;;;;;11.25;7.55;;;2.10;1.00;;;;;;5081972;28;20256;-75
2024/01/12 10:11:42;;;;;;;9.77;7.30;;;2.10;1.00;;;;;;5105641;28;20304;-75
2024/01/12 10:14:11;;;;;;;11.23;7.78;;;2.10;1.00;;;;;;5111377;28;20239;-75
2024/01/12 10:16:39;;;;;;;10.02;7.68;;;2.10;1.00;;;;;;5089275;28;20244;-79
2024/01/12 10:19:06;;;;;;;11.93;8.00;;;2.10;1.00;;;;;;5105405;27;20234;-77
2024/01/12 10:21:40;;;;;;;11.77;7.70;;;2.10;1.00;;;;;;5110867;28;20317;-76
2024/01/12 10:24:08;;;;;;;11.95;8.13;;;2.10;1.00;;;;;;5112803;27;20234;-79
2024/01/12 10:26:35;;;;;;;15.25;8.93;;;2.00;1.00;;;;;;5111387;28;20285;-79
2024/01/12 10:29:03;;;;;;;13.75;7.10;;;2.00;1.00;;;;;;5107362;28;20245;-75
2024/01/12 10:31:32;;;;;;;11.10;8.18;;;2.00;1.00;;;;;;5105133;28;20239;-76
2024/01/12 10:34:02;;;;;;;10.85;6.90;;;1.90;1.00;;;;;;5105074;27;20231;-75
2024/01/12 10:36:30;;;;;;;8.80;6.75;;;1.90;1.00;;;;;;5105279;28;20749;-75
2024/01/12 10:38:59;;;;;;;10.35;6.43;;;1.80;1.00;;;;;;5108224;27;21057;-73
2024/01/12 10:41:27;;;;;;;9.77;7.82;;;1.80;1.00;;;;;;5110551;28;20334;-75
2024/01/12 10:43:59;;;;;;;9.40;7.15;;;1.70;1.00;;;;;;5109822;27;20295;-71
2024/01/12 10:46:36;;;;;;;10.88;6.82;;;1.70;1.00;;;;;;5106513;27;20269;-75
2024/01/12 10:49:11;;;;;;;10.10;7.35;;;1.70;1.00;;;;;;5109498;28;20255;-71
2024/01/12 10:51:42;;;;;;;10.98;6.88;;;1.80;1.00;;;;;;5090091;27;20241;-73
2024/01/12 10:54:15;;;;;;;9.38;7.28;;;1.90;1.00;;;;;;5108869;28;21609;-73
2024/01/12 10:56:42;;;;;;;8.45;6.60;;;1.90;1.00;;;;;;5104548;28;20285;-73
2024/01/12 10:59:11;;;;;;;9.98;7.25;;;1.80;1.00;;;;;;5109011;27;20293;-74
2024/01/12 11:01:42;;;;;;;11.90;8.00;;;1.80;1.00;;;;;;5109836;28;20255;-73
2024/01/12 11:04:12;;;;;;;10.60;7.05;;;1.80;1.00;;;;;;5109029;28;20238;-72
2024/01/12 11:06:40;;;;;;;10.30;7.30;;;1.80;1.00;;;;;;5106664;28;20702;-75
2024/01/12 11:09:12;;;;;;;11.35;7.93;;;1.80;1.00;;;;;;5106582;28;20232;-72
2024/01/12 11:11:44;;;;;;;12.68;8.73;;;1.80;1.00;;;;;;5106284;27;20235;-79
2024/01/12 11:14:12;;;;;;;10.68;7.05;;;1.80;1.00;;;;;;5109764;28;20316;-76
2024/01/12 11:16:42;;;;;;;12.68;7.93;;;1.70;1.00;;;;;;5107187;27;20243;-75
2024/01/12 11:19:13;;;;;;;13.25;8.00;;;1.70;1.00;;;;;;5108293;28;20235;-73
2024/01/12 11:21:42;;;;;;;12.52;9.15;;;1.60;1.00;;;;;;5102475;28;20335;-73
2024/01/12 11:24:11;;;;;;;18.27;10.65;;;1.50;1.00;;;;;;5090737;28;20811;-72
2024/01/12 11:26:41;;;;;;;14.23;10.35;;;1.50;1.00;;;;;;5088934;28;20392;-72
2024/01/12 11:29:14;;;;;;;13.82;9.48;;;1.60;1.00;;;;;;5089954;28;20236;-72
2024/01/12 11:31:51;;;;;;;16.50;10.65;;;1.60;1.00;;;;;;5088185;28;20255;-75
2024/01/12 11:34:19;;;;;;;12.25;9.65;;;1.60;1.00;;;;;;5086913;28;20329;-72
2024/01/12 11:36:56;;;;;;;11.63;7.97;;;1.60;1.00;;;;;;5090560;28;21880;-76
2024/01/12 11:39:24;;;;;;;10.43;8.02;;;1.50;1.00;;;;;;5086609;28;20952;-73
2024/01/12 11:41:55;;;;;;;13.13;8.95;;;1.40;1.00;;;;;;5087313;28;20256;-74
2024/01/12 11:44:22;;;;;;;10.75;7.68;;;1.40;1.00;;;;;;5090516;28;20242;-72
2024/01/12 11:46:51;;;;;;;15.07;9.18;;;1.40;1.00;;;;;;5093548;28;20243;-74
2024/01/12 11:49:19;;;;;;;12.85;9.27;;;1.50;1.00;;;;;;5089865;28;20953;-74
2024/01/12 11:51:46;;;;;;;11.77;8.77;;;1.50;1.00;;;;;;5092164;28;20236;-74
2024/01/12 11:54:13;;;;;;;15.13;8.57;;;1.60;1.00;;;;;;5091604;28;20314;-74
2024/01/12 11:56:42;;;;;;;12.85;8.48;;;1.50;1.00;;;;;;5092890;28;20246;-72
2024/01/12 11:59:09;;;;;;;11.40;8.32;;;1.50;1.00;;;;;;5091489;28;20240;-75
2024/01/12 12:01:37;;;;;;;14.23;8.82;;;1.60;1.00;;;;;;5093190;28;20993;-77
2024/01/12 12:04:11;;;;;;;10.90;8.82;;;1.50;1.00;;;;;;5089778;28;20239;-76
2024/01/12 12:06:38;;;;;;;14.77;9.00;;;1.50;1.00;;;;;;5093528;28;20238;-76
2024/01/12 12:09:05;;;;;;;9.95;7.38;;;1.40;1.00;;;;;;5090522;28;20268;-73
2024/01/12 12:11:32;;;;;;;12.38;8.18;;;1.40;1.00;;;;;;5087506;28;20350;-74
2024/01/12 12:13:59;;;;;;;13.25;9.18;;;1.40;1.00;;;;;;5094741;28;20347;-76
2024/01/12 12:16:27;;;;;;;12.20;8.70;;;1.40;1.00;;;;;;5094778;28;20243;-76
2024/01/12 12:18:57;;;;;;;12.55;8.68;;;1.40;1.00;;;;;;5075830;28;20358;-77
2024/01/12 12:21:30;;;;;;;12.65;8.60;;;1.30;1.00;;;;;;5085763;27;20299;-79
2024/01/12 12:24:02;;;;;;;15.20;9.13;;;1.20;1.00;;;;;;5116220;28;20239;-75
2024/01/12 12:26:30;;;;;;;13.07;10.27;;;1.30;1.00;;;;;;5101432;27;20240;-77
2024/01/12 12:28:57;;;;;;;12.73;8.85;;;1.40;1.00;;;;;;5115432;27;20235;-76
2024/01/12 12:31:27;;;;;;;12.48;8.68;;;1.40;1.00;;;;;;5112345;28;20239;-78
2024/01/12 12:33:54;;;;;;;14.60;9.43;;;1.40;1.00;;;;;;5111306;28;20298;-75
2024/01/12 12:36:21;;;;;;;14.88;10.45;;;1.30;1.00;;;;;;5109132;28;20321;-75
2024/01/12 12:38:49;;;;;;;17.85;10.38;;;1.30;1.00;;;;;;5110341;28;20232;-76
2024/01/12 12:41:24;;;;;;;16.33;10.25;;;1.20;1.00;;;;;;5115196;28;20245;-74
2024/01/12 12:43:51;;;;;;;18.00;11.32;;;1.20;1.00;;;;;;5107703;28;20249;-73
2024/01/12 12:46:18;;;;;;;18.55;11.10;;;1.20;1.00;;;;;;5111446;27;20711;-74
2024/01/12 12:48:48;;;;;;;15.70;10.70;;;1.20;1.00;;;;;;5107095;28;20243;-73
2024/01/12 12:51:18;;;;;;;14.80;10.45;;;1.20;1.00;;;;;;5098052;27;20231;-73
2024/01/12 12:53:45;;;;;;;15.65;9.68;;;1.10;1.00;;;;;;5114078;28;20242;-75
2024/01/12 12:56:13;;;;;;;17.10;10.48;;;1.10;1.00;;;;;;5111705;28;20799;-74